createdAt,value
2019-05-21T00:02:17.243Z,13.14
2019-05-21T00:04:49.012Z,13.36
2019-05-21T00:07:20.869Z,13.42
2019-05-21T00:09:53.008Z,13.41
2019-05-21T00:12:25.033Z,13.29
2019-05-21T00:14:56.824Z,13.42
2019-05-21T00:17:30.241Z,13.10
2019-05-21T00:20:02.038Z,12.75
2019-05-21T00:22:33.912Z,13.04
2019-05-21T00:25:06.553Z,13.10
2019-05-21T00:27:38.531Z,13.31
2019-05-21T00:31:04.262Z,12.88
2019-05-21T00:34:43.059Z,12.93
2019-05-21T00:37:57.276Z,12.82
2019-05-21T00:41:23.211Z,12.57
2019-05-21T00:43:59.553Z,12.67
2019-05-21T00:46:31.532Z,12.42
2019-05-21T00:49:03.317Z,12.57
2019-05-21T00:51:35.141Z,12.51
2019-05-21T00:54:06.853Z,12.50
2019-05-21T00:56:40.463Z,12.45
2019-05-21T00:59:12.450Z,12.50
2019-05-21T01:01:44.151Z,12.44
2019-05-21T01:04:16.018Z,12.55
2019-05-21T01:06:47.735Z,12.62
2019-05-21T01:09:19.528Z,12.53
2019-05-21T01:11:51.519Z,12.44
2019-05-21T01:14:23.210Z,12.62
2019-05-21T01:16:57.045Z,12.54
2019-05-21T01:19:28.838Z,12.43
2019-05-21T01:22:00.546Z,12.58
2019-05-21T01:24:32.219Z,12.56
2019-05-21T01:27:04.099Z,12.32
2019-05-21T01:29:36.178Z,12.39
2019-05-21T01:32:09.103Z,12.36
2019-05-21T01:34:41.755Z,12.34
2019-05-21T01:37:13.506Z,12.56
2019-05-21T01:39:45.232Z,12.64
2019-05-21T01:42:17.058Z,12.08
2019-05-21T01:44:48.992Z,12.22
2019-05-21T01:47:20.688Z,12.34
2019-05-21T01:49:53.797Z,12.30
2019-05-21T01:52:25.664Z,12.25
2019-05-21T01:54:57.634Z,12.05
2019-05-21T01:57:29.310Z,12.15
2019-05-21T02:00:01.003Z,12.25
2019-05-21T02:02:32.709Z,12.32
2019-05-21T02:05:06.834Z,12.14
2019-05-21T02:07:39.103Z,12.08
2019-05-21T02:10:11.181Z,11.97
2019-05-21T02:12:42.939Z,12.10
2019-05-21T02:15:15.143Z,12.08
2019-05-21T02:17:46.812Z,12.18
2019-05-21T02:20:18.859Z,12.20
2019-05-21T02:22:50.843Z,12.01
2019-05-21T02:25:23.678Z,11.81
2019-05-21T02:27:55.484Z,11.93
2019-05-21T02:30:27.326Z,12.04
2019-05-21T02:32:59.039Z,11.98
2019-05-21T02:35:30.974Z,11.94
2019-05-21T02:38:02.860Z,11.91
2019-05-21T02:40:35.035Z,11.93
2019-05-21T02:43:07.133Z,11.90
2019-05-21T02:45:39.433Z,12.16
2019-05-21T02:48:11.356Z,11.86
2019-05-21T02:50:43.228Z,11.84
2019-05-21T02:53:15.110Z,11.81
2019-05-21T02:55:46.835Z,11.90
2019-05-21T02:58:18.537Z,11.79
2019-05-21T03:01:07.972Z,11.73
2019-05-21T03:03:39.732Z,11.90
2019-05-21T03:06:14.503Z,11.77
2019-05-21T03:08:45.850Z,11.79
2019-05-21T03:11:17.822Z,11.70
2019-05-21T03:13:49.878Z,11.85
2019-05-21T03:16:23.010Z,11.87
2019-05-21T03:18:54.930Z,11.97
2019-05-21T03:21:27.145Z,12.08
2019-05-21T03:23:59.014Z,11.77
2019-05-21T03:26:30.961Z,11.81
2019-05-21T03:29:03.750Z,11.92
2019-05-21T03:31:35.994Z,11.79
2019-05-21T03:34:08.250Z,12.01
2019-05-21T03:36:40.307Z,12.00
2019-05-21T03:39:12.232Z,11.94
2019-05-21T03:41:43.930Z,11.98
2019-05-21T03:44:15.746Z,11.83
2019-05-21T03:46:47.541Z,11.86
2019-05-21T03:49:19.334Z,12.14
2019-05-21T03:51:51.217Z,11.88
2019-05-21T03:54:23.289Z,11.90
2019-05-21T03:56:55.240Z,12.06
2019-05-21T03:59:27.187Z,12.00
2019-05-21T04:01:59.074Z,11.87
2019-05-21T04:04:31.181Z,11.63
2019-05-21T04:07:02.940Z,11.97
2019-05-21T04:09:35.043Z,11.89
2019-05-21T04:12:06.827Z,11.88
2019-05-21T04:14:45.797Z,11.87
2019-05-21T04:17:36.615Z,11.71
2019-05-21T04:20:08.149Z,11.69
2019-05-21T04:22:52.970Z,11.79
2019-05-21T04:25:26.195Z,11.89
2019-05-21T04:27:58.029Z,11.92
2019-05-21T04:30:30.030Z,11.83
2019-05-21T04:33:01.999Z,11.65
2019-05-21T04:35:33.914Z,11.81
2019-05-21T04:38:06.773Z,11.73
2019-05-21T04:40:38.578Z,11.90
2019-05-21T04:43:10.447Z,11.76
2019-05-21T04:45:42.249Z,11.86
2019-05-21T04:48:14.270Z,11.83
2019-05-21T04:50:45.932Z,11.90
2019-05-21T04:53:17.604Z,11.82
2019-05-21T04:55:49.401Z,11.59
2019-05-21T04:58:21.050Z,11.51
2019-05-21T05:00:52.973Z,11.37
2019-05-21T05:03:24.636Z,11.48
2019-05-21T05:05:56.442Z,11.53
2019-05-21T05:08:28.101Z,11.56
2019-05-21T05:10:59.785Z,11.68
2019-05-21T05:13:32.976Z,11.89
2019-05-21T05:16:04.727Z,11.88
2019-05-21T05:18:37.544Z,12.01
2019-05-21T05:21:09.453Z,12.08
2019-05-21T05:23:41.458Z,12.05
2019-05-21T05:26:13.308Z,12.03
2019-05-21T05:28:44.941Z,11.71
2019-05-21T05:31:16.845Z,11.76
2019-05-21T05:33:48.736Z,11.93
2019-05-21T05:36:20.402Z,11.97
2019-05-21T05:38:52.544Z,11.89
2019-05-21T05:41:24.240Z,12.13
2019-05-21T05:43:55.933Z,12.29
2019-05-21T05:46:27.833Z,12.31
2019-05-21T05:49:05.846Z,12.48
2019-05-21T05:51:37.554Z,12.52
2019-05-21T05:54:09.332Z,12.23
2019-05-21T05:56:41.196Z,12.19
2019-05-21T05:59:14.467Z,12.23
2019-05-21T06:01:46.485Z,12.12
2019-05-21T06:04:18.210Z,12.17
2019-05-21T06:06:50.013Z,11.94
2019-05-21T06:09:22.002Z,11.83
2019-05-21T06:11:54.780Z,11.97
2019-05-21T06:14:26.477Z,12.02
2019-05-21T06:16:58.165Z,11.91
2019-05-21T06:19:29.890Z,11.91
2019-05-21T06:22:01.698Z,12.05
2019-05-21T06:24:33.898Z,12.14
2019-05-21T06:27:05.901Z,12.33
2019-05-21T06:29:39.554Z,12.22
2019-05-21T06:32:10.766Z,12.37
2019-05-21T06:34:42.481Z,12.32
2019-05-21T06:37:13.979Z,12.10
2019-05-21T06:39:45.623Z,12.13
2019-05-21T06:42:17.128Z,12.22
2019-05-21T06:44:48.639Z,12.34
2019-05-21T06:47:20.205Z,12.16
2019-05-21T06:49:51.684Z,12.13
2019-05-21T06:52:23.316Z,12.04
2019-05-21T06:54:54.840Z,12.18
2019-05-21T06:57:26.381Z,12.03
2019-05-21T06:59:58.132Z,12.22
2019-05-21T07:02:29.641Z,12.01
2019-05-21T07:05:01.193Z,11.98
2019-05-21T07:07:34.555Z,12.16
2019-05-21T07:10:07.220Z,12.06
2019-05-21T07:12:38.761Z,12.18
2019-05-21T07:15:10.689Z,12.20
2019-05-21T07:17:43.232Z,12.12
2019-05-21T07:20:15.517Z,12.37
2019-05-21T07:22:47.688Z,12.09
2019-05-21T07:25:19.550Z,12.33
2019-05-21T07:27:51.064Z,12.21
2019-05-21T07:30:22.741Z,12.11
2019-05-21T07:32:54.615Z,12.28
2019-05-21T07:35:26.460Z,12.38
2019-05-21T07:37:58.332Z,12.29
2019-05-21T07:40:29.840Z,12.24
2019-05-21T07:43:01.593Z,12.23
2019-05-21T07:45:33.044Z,12.33
2019-05-21T07:48:04.940Z,12.20
2019-05-21T07:50:36.417Z,12.19
2019-05-21T07:53:09.053Z,12.22
2019-05-21T07:55:40.548Z,12.51
2019-05-21T07:58:12.278Z,12.62
2019-05-21T08:00:43.774Z,12.53
2019-05-21T08:03:15.303Z,12.50
2019-05-21T08:05:46.979Z,12.41
2019-05-21T08:08:18.631Z,12.39
2019-05-21T08:10:52.169Z,12.44
2019-05-21T08:13:23.716Z,12.42
2019-05-21T08:15:55.482Z,12.59
2019-05-21T08:18:28.835Z,12.70
2019-05-21T08:21:00.377Z,12.52
2019-05-21T08:23:32.225Z,12.66
2019-05-21T08:26:03.791Z,12.50
2019-05-21T08:28:35.398Z,12.50
2019-05-21T08:31:07.447Z,12.76
2019-05-21T08:33:38.945Z,12.56
2019-05-21T08:36:10.772Z,12.73
2019-05-21T08:38:43.618Z,12.78
2019-05-21T08:41:15.129Z,12.85
2019-05-21T08:43:46.623Z,12.98
2019-05-21T08:46:18.082Z,13.04
2019-05-21T08:48:50.501Z,13.15
2019-05-21T08:51:21.988Z,12.94
2019-05-21T08:53:54.749Z,12.97
2019-05-21T08:56:26.418Z,13.10
2019-05-21T08:58:58.168Z,13.24
2019-05-21T09:01:29.928Z,13.40
2019-05-21T09:04:01.581Z,13.35
2019-05-21T09:06:33.115Z,13.29
2019-05-21T09:09:05.968Z,13.50
2019-05-21T09:11:37.486Z,13.68
2019-05-21T09:14:09.059Z,13.64
2019-05-21T09:16:40.760Z,13.49
2019-05-21T09:19:12.456Z,13.44
2019-05-21T09:21:44.074Z,13.62
2019-05-21T09:24:15.758Z,13.53
2019-05-21T09:26:47.252Z,13.44
2019-05-21T09:29:19.242Z,13.50
2019-05-21T09:31:50.752Z,13.57
2019-05-21T09:34:22.165Z,13.48
2019-05-21T09:36:53.865Z,13.46
2019-05-21T09:39:25.588Z,13.53
2019-05-21T09:41:57.149Z,13.76
2019-05-21T09:44:28.964Z,13.69
2019-05-21T09:47:01.196Z,14.02
2019-05-21T09:49:32.638Z,14.16
2019-05-21T09:52:04.323Z,13.77
2019-05-21T09:54:35.771Z,13.82
2019-05-21T09:57:09.462Z,13.97
2019-05-21T09:59:48.888Z,14.06
2019-05-21T10:02:23.567Z,14.21
2019-05-21T10:04:55.033Z,14.25
2019-05-21T10:07:39.123Z,14.34
2019-05-21T10:10:01.649Z,14.20
2019-05-21T10:12:33.326Z,13.88
2019-05-21T10:15:07.144Z,14.21
2019-05-21T10:17:38.642Z,14.25
2019-05-21T10:20:10.699Z,14.19
2019-05-21T10:22:44.084Z,13.84
2019-05-21T10:25:16.099Z,13.91
2019-05-21T10:27:47.759Z,13.90
2019-05-21T10:30:19.765Z,13.93
2019-05-21T10:32:54.393Z,13.99
2019-05-21T10:35:25.908Z,14.05
2019-05-21T10:37:57.327Z,14.28
2019-05-21T10:40:28.876Z,14.22
2019-05-21T10:43:00.434Z,14.36
2019-05-21T10:45:31.967Z,14.39
2019-05-21T10:48:03.786Z,14.56
2019-05-21T10:50:35.520Z,14.34
2019-05-21T10:53:08.933Z,14.11
2019-05-21T10:55:40.828Z,14.29
2019-05-21T10:58:12.376Z,14.27
2019-05-21T11:00:45.810Z,14.51
2019-05-21T11:03:21.418Z,14.56
2019-05-21T11:06:08.975Z,14.73
2019-05-21T11:08:28.636Z,14.90
2019-05-21T11:11:00.178Z,14.71
2019-05-21T11:13:31.727Z,14.41
2019-05-21T11:16:03.165Z,14.41
2019-05-21T11:18:35.097Z,14.55
2019-05-21T11:21:06.931Z,14.62
2019-05-21T11:23:38.489Z,14.76
2019-05-21T11:26:10.244Z,14.68
2019-05-21T11:28:41.916Z,14.99
2019-05-21T11:31:13.426Z,15.01
2019-05-21T11:33:45.087Z,14.99
2019-05-21T11:36:16.602Z,14.87
2019-05-21T11:38:49.313Z,15.08
2019-05-21T11:41:20.853Z,15.17
2019-05-21T11:43:54.039Z,15.13
2019-05-21T11:46:25.755Z,15.30
2019-05-21T11:48:57.154Z,15.21
2019-05-21T11:51:28.986Z,15.36
2019-05-21T11:54:00.590Z,15.01
2019-05-21T11:56:36.210Z,14.74
2019-05-21T11:59:09.653Z,14.83
2019-05-21T12:01:41.545Z,14.94
2019-05-21T12:04:13.038Z,14.68
2019-05-21T12:06:44.796Z,14.72
2019-05-21T12:09:16.258Z,14.61
2019-05-21T12:11:47.955Z,14.57
2019-05-21T12:14:21.910Z,14.38
2019-05-21T12:16:53.650Z,14.54
2019-05-21T12:19:25.127Z,14.70
2019-05-21T12:21:56.704Z,14.70
2019-05-21T12:24:29.895Z,14.85
2019-05-21T12:27:01.418Z,14.72
2019-05-21T12:29:34.370Z,14.92
2019-05-21T12:32:06.159Z,14.55
2019-05-21T12:34:39.052Z,14.46
2019-05-21T12:37:10.786Z,14.51
2019-05-21T12:39:42.814Z,14.70
2019-05-21T12:42:14.386Z,14.41
2019-05-21T12:44:46.088Z,14.50
2019-05-21T12:47:17.624Z,14.52
2019-05-21T12:49:49.277Z,14.30
2019-05-21T12:52:20.879Z,14.18
2019-05-21T12:54:52.748Z,14.44
2019-05-21T12:57:24.278Z,14.55
2019-05-21T12:59:55.796Z,14.63
2019-05-21T13:02:27.509Z,14.67
2019-05-21T13:04:59.046Z,14.39
2019-05-21T13:07:30.701Z,14.15
2019-05-21T13:10:02.196Z,14.23
2019-05-21T13:12:33.958Z,14.43
2019-05-21T13:15:06.225Z,14.46
2019-05-21T13:17:37.727Z,13.99
2019-05-21T13:20:10.947Z,13.83
2019-05-21T13:22:42.740Z,13.86
2019-05-21T13:25:14.500Z,13.94
2019-05-21T13:27:46.190Z,13.94
2019-05-21T13:30:18.729Z,14.05
2019-05-21T13:32:50.283Z,14.09
2019-05-21T13:35:21.762Z,14.16
2019-05-21T13:37:53.368Z,13.93
2019-05-21T13:40:25.613Z,14.15
2019-05-21T13:42:57.207Z,14.15
2019-05-21T13:45:28.812Z,14.11
2019-05-21T13:48:00.414Z,14.08
2019-05-21T13:50:31.953Z,13.82
2019-05-21T13:53:03.778Z,13.87
2019-05-21T13:55:36.807Z,13.88
2019-05-21T13:58:08.689Z,14.11
2019-05-21T14:00:53.095Z,13.90
2019-05-21T14:03:24.653Z,13.90
2019-05-21T14:05:56.592Z,13.78
2019-05-21T14:08:28.255Z,14.03
2019-05-21T14:11:00.434Z,13.79
2019-05-21T14:13:32.242Z,13.67
2019-05-21T14:16:05.129Z,13.80
2019-05-21T14:18:36.917Z,13.56
2019-05-21T14:21:08.639Z,13.52
2019-05-21T14:23:40.306Z,13.69
2019-05-21T14:26:14.791Z,13.86
2019-05-21T14:28:46.487Z,14.06
2019-05-21T14:31:18.087Z,13.92
2019-05-21T14:33:50.568Z,13.91
2019-05-21T14:36:22.167Z,14.00
2019-05-21T14:38:55.674Z,14.16
2019-05-21T14:41:27.223Z,14.18
2019-05-21T14:43:58.932Z,14.14
2019-05-21T14:46:30.822Z,13.88
2019-05-21T14:49:02.392Z,13.88
2019-05-21T14:51:34.106Z,13.65
2019-05-21T14:54:05.951Z,13.72
2019-05-21T14:56:37.725Z,13.95
2019-05-21T14:59:09.304Z,13.90
2019-05-21T15:01:41.294Z,13.97
2019-05-21T15:04:13.304Z,14.11
2019-05-21T15:06:45.196Z,14.06
2019-05-21T15:09:17.168Z,13.91
2019-05-21T15:11:48.793Z,13.91
2019-05-21T15:14:21.181Z,13.67
2019-05-21T15:16:52.982Z,13.69
2019-05-21T15:19:28.115Z,13.70
2019-05-21T15:21:59.848Z,13.96
2019-05-21T15:24:33.618Z,13.72
2019-05-21T15:27:05.700Z,13.75
2019-05-21T15:29:37.546Z,13.97
2019-05-21T15:32:09.326Z,13.88
2019-05-21T15:34:40.861Z,13.81
2019-05-21T15:37:12.524Z,13.96
2019-05-21T15:39:44.506Z,13.93
2019-05-21T15:42:17.264Z,13.58
2019-05-21T15:44:48.908Z,13.66
2019-05-21T15:47:20.694Z,13.83
2019-05-21T15:49:52.297Z,13.61
2019-05-21T15:52:24.115Z,13.67
2019-05-21T15:54:55.778Z,13.73
2019-05-21T15:57:27.344Z,13.57
2019-05-21T15:59:59.599Z,13.50
2019-05-21T16:02:31.146Z,13.33
2019-05-21T16:05:02.767Z,13.40
2019-05-21T16:07:34.484Z,13.47
2019-05-21T16:10:07.039Z,13.44
2019-05-21T16:12:38.608Z,13.43
2019-05-21T16:15:10.836Z,13.77
2019-05-21T16:17:43.557Z,13.69
2019-05-21T16:20:15.633Z,13.80
2019-05-21T16:22:47.247Z,13.96
2019-05-21T16:25:19.298Z,13.89
2019-05-21T16:27:51.098Z,13.74
2019-05-21T16:30:23.057Z,13.76
2019-05-21T16:32:54.611Z,13.70
2019-05-21T16:35:28.573Z,13.68
2019-05-21T16:38:00.540Z,13.83
2019-05-21T16:40:32.200Z,13.82
2019-05-21T16:43:03.925Z,13.79
2019-05-21T16:45:37.081Z,13.71
2019-05-21T16:48:09.092Z,13.54
2019-05-21T16:50:42.689Z,13.78
2019-05-21T16:53:14.731Z,13.77
2019-05-21T16:55:47.068Z,13.91
2019-05-21T16:58:18.889Z,13.55
2019-05-21T17:00:51.298Z,13.71
2019-05-21T17:03:23.217Z,13.70
2019-05-21T17:05:55.076Z,13.58
2019-05-21T17:08:26.592Z,13.63
2019-05-21T17:10:58.594Z,13.60
2019-05-21T17:13:30.715Z,13.43
2019-05-21T17:16:02.291Z,13.50
2019-05-21T17:18:34.046Z,13.45
2019-05-21T17:21:05.627Z,13.47
2019-05-21T17:23:38.088Z,13.20
2019-05-21T17:26:09.713Z,13.21
2019-05-21T17:28:41.694Z,13.36
2019-05-21T17:31:14.142Z,13.21
2019-05-21T17:33:46.242Z,13.14
2019-05-21T17:36:17.872Z,13.20
2019-05-21T17:38:49.515Z,13.15
2019-05-21T17:41:21.201Z,13.22
2019-05-21T17:43:52.915Z,13.14
2019-05-21T17:46:24.730Z,13.22
2019-05-21T17:48:56.485Z,13.20
2019-05-21T17:51:29.897Z,13.14
2019-05-21T17:54:03.204Z,13.26
2019-05-21T17:56:35.035Z,13.08
2019-05-21T17:59:06.614Z,13.13
2019-05-21T18:01:38.412Z,12.97
2019-05-21T18:04:12.234Z,12.99
2019-05-21T18:06:44.135Z,12.90
2019-05-21T18:09:16.833Z,12.99
2019-05-21T18:11:49.145Z,12.99
2019-05-21T18:14:21.861Z,13.03
2019-05-21T18:16:54.955Z,13.08
2019-05-21T18:19:27.966Z,13.26
2019-05-21T18:22:01.595Z,13.21
2019-05-21T18:24:34.334Z,13.05
2019-05-21T18:27:06.113Z,13.00
2019-05-21T18:29:37.783Z,13.07
2019-05-21T18:32:09.545Z,13.07
2019-05-21T18:34:41.645Z,13.06
2019-05-21T18:37:13.784Z,13.31
2019-05-21T18:39:45.803Z,13.26
2019-05-21T18:42:22.405Z,13.33
2019-05-21T18:44:50.956Z,13.32
2019-05-21T18:47:22.522Z,13.19
2019-05-21T18:49:55.491Z,13.37
2019-05-21T18:52:27.428Z,13.39
2019-05-21T18:55:00.066Z,13.28
2019-05-21T18:57:31.767Z,13.31
2019-05-21T19:00:03.421Z,13.18
2019-05-21T19:02:36.750Z,13.38
2019-05-21T19:05:09.252Z,13.30
2019-05-21T19:07:41.795Z,13.38
2019-05-21T19:10:15.705Z,13.44
2019-05-21T19:12:47.339Z,13.36
2019-05-21T19:15:19.383Z,13.08
2019-05-21T19:17:51.219Z,13.29
2019-05-21T19:20:23.542Z,13.21
2019-05-21T19:22:55.566Z,13.13
2019-05-21T19:25:28.058Z,13.26
2019-05-21T19:27:59.747Z,13.12
2019-05-21T19:30:32.232Z,12.97
2019-05-21T19:33:04.407Z,12.89
2019-05-21T19:35:36.049Z,12.96
2019-05-21T19:38:08.194Z,12.96
2019-05-21T19:40:41.843Z,13.01
2019-05-21T19:43:14.972Z,12.96
2019-05-21T19:45:46.665Z,12.92
2019-05-21T19:48:18.660Z,13.08
2019-05-21T19:50:52.397Z,13.11
2019-05-21T19:53:24.228Z,13.11
2019-05-21T19:55:56.059Z,13.22
2019-05-21T19:58:27.742Z,13.13
2019-05-21T20:00:59.905Z,13.08
2019-05-21T20:03:32.767Z,13.06
2019-05-21T20:06:04.628Z,13.19
2019-05-21T20:08:36.608Z,13.19
2019-05-21T20:11:11.480Z,13.16
2019-05-21T20:13:43.134Z,13.41
2019-05-21T20:16:16.983Z,13.52
2019-05-21T20:18:48.881Z,13.39
2019-05-21T20:21:22.678Z,13.53
2019-05-21T20:23:54.740Z,13.54
2019-05-21T20:26:28.346Z,13.65
2019-05-21T20:29:01.768Z,13.39
2019-05-21T20:31:33.387Z,13.53
2019-05-21T20:34:06.746Z,13.48
2019-05-21T20:36:40.898Z,13.52
2019-05-21T20:39:15.090Z,13.34
2019-05-21T20:41:47.490Z,13.23
2019-05-21T20:44:19.976Z,13.22
2019-05-21T20:46:55.349Z,13.12
2019-05-21T20:49:26.972Z,13.14
2019-05-21T20:51:58.919Z,12.98
2019-05-21T20:54:31.954Z,12.98
2019-05-21T20:57:05.820Z,13.00
2019-05-21T20:59:38.298Z,13.01
2019-05-21T21:02:12.510Z,13.04
2019-05-21T21:04:44.142Z,13.12
2019-05-21T21:07:16.442Z,13.27
2019-05-21T21:09:48.142Z,13.19
2019-05-21T21:12:20.765Z,13.28
2019-05-21T21:14:53.550Z,13.31
2019-05-21T21:17:25.621Z,13.25
2019-05-21T21:19:57.349Z,13.23
2019-05-21T21:22:28.933Z,13.27
2019-05-21T21:25:01.047Z,13.26
2019-05-21T21:27:35.526Z,13.23
2019-05-21T21:30:09.003Z,13.30
2019-05-21T21:32:41.183Z,13.52
2019-05-21T21:35:14.041Z,13.38
2019-05-21T21:37:47.284Z,13.27
2019-05-21T21:40:21.092Z,13.43
2019-05-21T21:42:53.260Z,13.39
2019-05-21T21:45:25.132Z,13.24
2019-05-21T21:47:56.671Z,13.37
2019-05-21T21:50:29.379Z,13.43
2019-05-21T21:53:00.976Z,13.41
2019-05-21T21:55:32.945Z,13.48
2019-05-21T21:58:04.700Z,13.48
2019-05-21T22:01:36.988Z,13.27
2019-05-21T22:04:12.276Z,13.28
2019-05-21T22:06:45.775Z,13.46
2019-05-21T22:09:43.280Z,13.35
2019-05-21T22:12:18.677Z,13.38
2019-05-21T22:15:02.212Z,13.42
2019-05-21T22:17:34.546Z,13.41
2019-05-21T22:20:08.422Z,13.47
2019-05-21T22:22:40.030Z,13.53
2019-05-21T22:25:12.274Z,13.43
2019-05-21T22:27:44.018Z,13.39
2019-05-21T22:30:17.536Z,13.31
2019-05-21T22:32:49.186Z,13.39
2019-05-21T22:35:20.821Z,13.39
2019-05-21T22:37:52.381Z,13.41
2019-05-21T22:40:25.908Z,13.33
2019-05-21T22:42:57.476Z,13.56
2019-05-21T22:45:29.312Z,13.42
2019-05-21T22:48:01.369Z,13.36
2019-05-21T22:50:33.163Z,13.32
2019-05-21T22:53:05.478Z,13.12
2019-05-21T22:55:37.067Z,13.27
2019-05-21T22:58:09.008Z,13.36
2019-05-21T23:00:41.072Z,13.41
2019-05-21T23:03:13.254Z,13.30
2019-05-21T23:05:45.057Z,13.20
2019-05-21T23:08:17.589Z,13.16
2019-05-21T23:10:49.235Z,13.05
2019-05-21T23:13:21.124Z,13.34
2019-05-21T23:15:53.648Z,13.52
2019-05-21T23:18:35.797Z,13.39
2019-05-21T23:21:19.489Z,13.32
2019-05-21T23:23:53.319Z,13.09
2019-05-21T23:26:25.659Z,13.09
2019-05-21T23:28:57.236Z,13.22
2019-05-21T23:31:30.084Z,13.11
2019-05-21T23:34:02.432Z,13.06
2019-05-21T23:36:34.434Z,12.90
2019-05-21T23:39:08.779Z,12.96
2019-05-21T23:41:41.955Z,12.99
2019-05-21T23:44:14.231Z,12.96
2019-05-21T23:46:45.975Z,12.85
2019-05-21T23:49:17.513Z,12.77
2019-05-21T23:51:49.305Z,12.68
2019-05-21T23:54:20.988Z,12.87
2019-05-21T23:56:54.143Z,13.10
2019-05-21T23:59:28.037Z,13.16
